Terminal Aerodrome Forecast
Issued by NWS Shreveport, LA

Home | Current Version | Previous Version | Text Only | Print | Product List | Glossary On
Versions: 1 2 3 4 5 6 7 8 9 10 11 12
000
FTUS44 KSHV 011723
TAFTYR
TAF
KTYR 011723Z 0118/0218 24005KT P6SM SCT250
     FM020000 VRB03KT P6SM BKN150 BKN250
     FM021400 25003KT P6SM SCT250=

USA.gov is the U.S. government's official web portal to all federal, state and local government web resources and services.